createdAt,value
2023-03-17T00:02:33.536Z,99875.75
2023-03-17T00:07:42.079Z,99874.27
2023-03-17T00:12:50.152Z,99871.62
2023-03-17T00:17:59.335Z,99877.17
2023-03-17T00:23:06.673Z,99868.38
2023-03-17T00:28:18.839Z,99868.09
2023-03-17T00:33:28.096Z,99868.56
2023-03-17T00:38:35.319Z,99867.64
2023-03-17T00:43:41.461Z,99866.25
2023-03-17T00:48:50.081Z,99866.63
2023-03-17T00:53:57.612Z,99867.30
2023-03-17T00:59:05.251Z,99866.52
2023-03-17T01:04:13.723Z,99859.14
2023-03-17T01:09:24.726Z,99851.24
2023-03-17T01:14:32.129Z,99849.55
2023-03-17T01:19:39.424Z,99847.88
2023-03-17T01:24:48.057Z,99856.79
2023-03-17T01:29:57.054Z,99854.96
2023-03-17T01:35:04.957Z,99858.70
2023-03-17T01:40:19.225Z,99853.30
2023-03-17T01:46:22.540Z,99849.60
2023-03-17T01:51:34.733Z,99843.36
2023-03-17T01:56:45.469Z,99836.67
2023-03-17T02:01:59.496Z,99831.34
2023-03-17T02:07:07.702Z,99833.27
2023-03-17T02:12:17.452Z,99833.24
2023-03-17T02:17:28.971Z,99822.04
2023-03-17T02:22:37.682Z,99825.08
2023-03-17T02:27:47.820Z,99829.24
2023-03-17T02:32:55.577Z,99824.93
2023-03-17T02:38:02.867Z,99824.35
2023-03-17T02:43:09.150Z,99830.86
2023-03-17T02:48:17.478Z,99821.04
2023-03-17T02:53:25.220Z,99818.08
2023-03-17T02:58:33.412Z,99817.85
2023-03-17T03:03:41.027Z,99825.14
2023-03-17T03:08:48.439Z,99827.44
2023-03-17T03:13:56.752Z,99824.30
2023-03-17T03:19:04.149Z,99824.17
2023-03-17T03:24:12.174Z,99831.14
2023-03-17T03:29:19.694Z,99831.77
2023-03-17T03:34:28.015Z,99824.67
2023-03-17T03:39:41.352Z,99825.29
2023-03-17T03:44:49.114Z,99823.70
2023-03-17T03:49:56.575Z,99799.68
2023-03-17T03:55:04.019Z,99798.48
2023-03-17T04:00:15.194Z,99819.38
2023-03-17T04:05:22.887Z,99819.81
2023-03-17T04:10:32.111Z,99825.00
2023-03-17T04:15:41.379Z,99821.48
2023-03-17T04:20:48.886Z,99818.10
2023-03-17T04:25:57.087Z,99818.63
2023-03-17T04:31:04.471Z,99811.09
2023-03-17T04:36:19.642Z,99824.15
2023-03-17T04:41:27.122Z,99831.70
2023-03-17T04:46:33.112Z,99834.61
2023-03-17T04:51:40.778Z,99836.16
2023-03-17T04:56:48.299Z,99832.88
2023-03-17T05:01:56.030Z,99817.65
2023-03-17T05:07:04.350Z,99816.25
2023-03-17T05:12:15.086Z,99809.82
2023-03-17T05:17:23.075Z,99808.98
2023-03-17T05:22:30.791Z,99821.13
2023-03-17T05:27:38.328Z,99825.40
2023-03-17T05:32:47.424Z,99830.42
2023-03-17T05:37:55.411Z,99831.06
2023-03-17T05:43:03.847Z,99842.21
2023-03-17T05:48:12.570Z,99838.52
2023-03-17T05:53:20.239Z,99843.08
2023-03-17T05:58:28.207Z,99841.65
2023-03-17T06:03:38.409Z,99844.75
2023-03-17T06:08:45.939Z,99846.67
2023-03-17T06:13:53.591Z,99843.14
2023-03-17T06:19:01.412Z,99852.90
2023-03-17T06:24:10.047Z,99856.92
2023-03-17T06:29:17.889Z,99859.60
2023-03-17T06:34:27.667Z,99865.67
2023-03-17T06:45:14.661Z,99869.87
2023-03-17T06:50:22.366Z,99872.16
2023-03-17T06:55:29.883Z,99875.52
2023-03-17T07:00:38.587Z,99867.95
2023-03-17T07:05:45.956Z,99871.72
2023-03-17T07:10:51.927Z,99872.79
2023-03-17T07:16:00.588Z,99869.31
2023-03-17T07:21:08.988Z,99872.00
2023-03-17T07:26:16.349Z,99866.78
2023-03-17T07:31:24.556Z,99864.65
2023-03-17T07:36:32.068Z,99863.41
2023-03-17T07:41:39.622Z,99863.54
2023-03-17T07:46:47.177Z,99859.60
2023-03-17T07:51:54.425Z,99857.05
2023-03-17T07:57:02.028Z,99858.88
2023-03-17T08:02:12.561Z,99855.34
2023-03-17T08:07:20.672Z,99856.48
2023-03-17T08:12:28.234Z,99855.74
2023-03-17T08:17:36.711Z,99860.70
2023-03-17T08:22:44.700Z,99852.48
2023-03-17T08:27:52.198Z,99850.55
2023-03-17T08:32:59.696Z,99847.02
2023-03-17T08:38:08.693Z,99848.41
2023-03-17T08:43:16.756Z,99850.14
2023-03-17T08:48:25.519Z,99854.48
2023-03-17T08:53:35.242Z,99849.74
2023-03-17T08:58:44.299Z,99851.59
2023-03-17T09:03:52.999Z,99854.42
2023-03-17T09:09:00.660Z,99847.78
2023-03-17T09:14:08.559Z,99843.11
2023-03-17T09:19:16.836Z,99843.09
2023-03-17T09:24:25.231Z,99832.45
2023-03-17T09:29:33.922Z,99824.52
2023-03-17T09:34:42.286Z,99819.00
2023-03-17T09:39:49.885Z,99817.70
2023-03-17T09:45:12.787Z,99819.80
2023-03-17T09:50:26.138Z,99816.14
2023-03-17T09:55:36.248Z,99805.42
2023-03-17T10:00:44.595Z,99798.09
2023-03-17T10:05:52.398Z,99790.23
2023-03-17T10:11:07.701Z,99785.53
2023-03-17T10:16:20.896Z,99782.85
2023-03-17T10:21:34.197Z,99765.41
2023-03-17T10:26:46.324Z,99762.20
2023-03-17T10:31:57.766Z,99754.68
2023-03-17T10:37:08.938Z,99758.41
2023-03-17T10:44:54.847Z,99751.59
2023-03-17T10:50:02.899Z,99737.98
2023-03-17T10:55:14.456Z,99736.48
2023-03-17T11:00:24.540Z,99731.77
2023-03-17T11:05:30.089Z,99726.27
2023-03-17T11:10:41.382Z,99720.02
2023-03-17T11:15:50.427Z,99712.75
2023-03-17T11:21:00.834Z,99717.53
2023-03-17T11:26:17.443Z,99716.81
2023-03-17T11:31:30.910Z,99710.77
2023-03-17T11:36:48.079Z,99711.10
2023-03-17T11:42:08.404Z,99698.08
2023-03-17T11:47:28.097Z,99692.29
2023-03-17T11:52:41.363Z,99671.34
2023-03-17T11:57:53.409Z,99655.73
2023-03-17T12:03:01.529Z,99651.17
2023-03-17T12:08:13.059Z,99649.45
2023-03-17T12:13:22.027Z,99634.91
2023-03-17T12:18:32.351Z,99627.01
2023-03-17T12:23:44.226Z,99626.23
2023-03-17T12:28:53.425Z,99626.60
2023-03-17T12:34:41.742Z,99621.35
2023-03-17T12:44:30.688Z,99608.88
2023-03-17T12:49:53.858Z,99606.66
2023-03-17T12:55:04.798Z,99608.05
2023-03-17T13:00:28.566Z,99594.27
2023-03-17T13:05:37.507Z,99579.85
2023-03-17T13:10:48.771Z,99571.60
2023-03-17T13:16:07.079Z,99562.40
2023-03-17T13:21:16.879Z,99562.53
2023-03-17T13:26:45.612Z,99565.44
2023-03-17T13:31:53.275Z,99563.28
2023-03-17T13:37:15.290Z,99562.48
2023-03-17T13:42:35.691Z,99556.63
2023-03-17T13:47:44.904Z,99553.96
2023-03-17T13:52:56.329Z,99547.29
2023-03-17T13:58:24.437Z,99546.56
2023-03-17T14:03:41.020Z,99544.27
2023-03-17T14:08:53.751Z,99530.29
2023-03-17T14:14:31.239Z,99529.84
2023-03-17T14:19:41.905Z,99517.11
2023-03-17T14:24:54.981Z,99512.50
2023-03-17T14:30:09.815Z,99504.11
2023-03-17T14:35:18.138Z,99498.04
2023-03-17T14:40:29.995Z,99498.95
2023-03-17T14:45:49.918Z,99499.52
2023-03-17T14:51:05.455Z,99495.30
2023-03-17T14:56:13.334Z,99491.23
2023-03-17T15:01:23.842Z,99477.65
2023-03-17T15:06:35.165Z,99470.14
2023-03-17T15:11:46.489Z,99469.81
2023-03-17T15:16:56.398Z,99467.71
2023-03-17T15:22:22.840Z,99456.34
2023-03-17T15:27:31.825Z,99457.80
2023-03-17T15:32:39.881Z,99447.08
2023-03-17T15:37:47.250Z,99442.20
2023-03-17T15:44:20.054Z,99439.88
2023-03-17T15:49:30.164Z,99444.71
2023-03-17T15:54:37.630Z,99442.05
2023-03-17T15:59:45.152Z,99437.44
2023-03-17T16:04:52.721Z,99431.55
2023-03-17T16:09:59.940Z,99434.05
2023-03-17T16:15:21.912Z,99429.27
2023-03-17T16:20:34.034Z,99418.91
2023-03-17T16:25:41.793Z,99415.86
2023-03-17T16:30:50.978Z,99411.99
2023-03-17T16:35:58.842Z,99414.73
2023-03-17T16:41:10.852Z,99422.70
2023-03-17T16:46:19.102Z,99425.40
2023-03-17T16:51:26.931Z,99423.83
2023-03-17T16:56:34.736Z,99427.48
2023-03-17T17:01:42.684Z,99422.32
2023-03-17T17:06:50.281Z,99423.30
2023-03-17T17:11:58.718Z,99420.19
2023-03-17T17:17:06.223Z,99427.17
2023-03-17T17:22:15.670Z,99433.80
2023-03-17T17:27:23.079Z,99441.80
2023-03-17T17:32:30.284Z,99440.52
2023-03-17T17:37:36.449Z,99443.79
2023-03-17T17:42:44.181Z,99443.32
2023-03-17T17:47:52.355Z,99446.77
2023-03-17T17:53:05.551Z,99446.96
2023-03-17T17:58:16.074Z,99447.52
2023-03-17T18:03:25.451Z,99453.05
2023-03-17T18:08:32.890Z,99454.23
2023-03-17T18:13:41.234Z,99450.85
2023-03-17T18:18:48.857Z,99443.37
2023-03-17T18:23:57.309Z,99445.03
2023-03-17T18:29:05.040Z,99444.52
2023-03-17T18:34:17.882Z,99442.94
2023-03-17T18:39:25.369Z,99442.54
2023-03-17T18:44:32.849Z,99443.50
2023-03-17T18:49:40.684Z,99447.01
2023-03-17T18:54:48.206Z,99448.73
2023-03-17T18:59:56.138Z,99439.36
2023-03-17T19:05:03.962Z,99432.02
2023-03-17T19:10:14.167Z,99430.34
2023-03-17T19:15:21.822Z,99430.84
2023-03-17T19:20:29.593Z,99429.70
2023-03-17T19:25:37.572Z,99423.91
2023-03-17T19:30:45.786Z,99420.04
2023-03-17T19:35:58.838Z,99418.04
2023-03-17T19:41:07.742Z,99412.31
2023-03-17T19:46:15.363Z,99410.35
2023-03-17T19:51:23.267Z,99411.05
2023-03-17T19:56:31.143Z,99412.40
2023-03-17T20:01:39.569Z,99409.22
2023-03-17T20:06:47.411Z,99406.20
2023-03-17T20:11:56.289Z,99412.95
2023-03-17T20:17:03.774Z,99417.05
2023-03-17T20:22:10.989Z,99415.09
2023-03-17T20:27:16.568Z,99416.13
2023-03-17T20:32:23.936Z,99409.15
2023-03-17T20:37:31.442Z,99408.05
2023-03-17T20:46:09.217Z,99402.67
2023-03-17T20:51:18.342Z,99403.63
2023-03-17T20:56:28.896Z,99403.30
2023-03-17T21:01:40.420Z,99408.37
2023-03-17T21:06:47.864Z,99401.30
2023-03-17T21:11:55.321Z,99398.89
2023-03-17T21:17:02.932Z,99393.11
2023-03-17T21:22:10.394Z,99387.60
2023-03-17T21:27:18.242Z,99392.17
2023-03-17T21:32:26.060Z,99392.96
2023-03-17T21:37:33.536Z,99393.50
2023-03-17T21:42:41.517Z,99390.14
2023-03-17T21:47:48.917Z,99387.44
2023-03-17T21:52:56.491Z,99388.05
2023-03-17T21:58:04.194Z,99390.88
2023-03-17T22:03:11.662Z,99391.60
2023-03-17T22:08:19.527Z,99395.58
2023-03-17T22:13:26.960Z,99390.99
2023-03-17T22:18:34.862Z,99396.42
2023-03-17T22:23:42.619Z,99392.40
2023-03-17T22:28:51.705Z,99388.45
2023-03-17T22:34:01.546Z,99396.58
2023-03-17T22:39:11.045Z,99390.21
2023-03-17T22:44:18.745Z,99386.05
2023-03-17T22:49:26.154Z,99383.69
2023-03-17T22:54:33.575Z,99382.70
2023-03-17T22:59:39.626Z,99383.73
2023-03-17T23:04:47.059Z,99381.44
2023-03-17T23:09:54.648Z,99381.24
2023-03-17T23:15:02.525Z,99382.89
2023-03-17T23:20:12.174Z,99383.59
2023-03-17T23:25:20.460Z,99388.73
2023-03-17T23:30:28.106Z,99385.27
2023-03-17T23:35:36.021Z,99385.77
2023-03-17T23:40:43.353Z,99384.51
2023-03-17T23:45:53.196Z,99389.62
2023-03-17T23:51:01.271Z,99379.75
2023-03-17T23:56:09.733Z,99371.08
